Skip Navigation Links
NOAA logo - Click to go to the NOAA homepage
NOAA's National Weather Service
Alaska Aviation Weather Unit
  NWS logo - Click to go to the NWS homepage
Left Navbar Graphic     03 AKDT = 11 GMT

   
NOAA is celebrating 200 years of science, service, and stewardship. Visit the NOAA 200th celebration Web site to learn more.
USA.gov is the U.S. Government's official Web portal to all Federal, state and local government Web resources and services.
Facebook
NWS on Facebook

AAWU Home :: Display TAF Add Bookmark
TAF PAYA 290918Z 2909/3006 10007KT 5SM -SHRASN SCT015 OVC035
      WS020/13030KT
      TEMPO 2909/2913 2SM -SHSN BKN009 OVC012
     FM291300 10010KT 6SM -SHRA SCT015 OVC025 WS020/13030KT
     FM292200 17010KT 4SM -SHRA BR SCT008 OVC015=

METAR PAYA 290553Z AUTO 09008KT 10SM FEW026 FEW032 OVC060 03/02 A2970 RMK AO2 RAE44 SLP057 P0000 60010 T00280017 10039 20028 57000 TSNO= METAR PAYA 290653Z AUTO 09006KT 10SM -RA FEW024 OVC033 03/01 A2970 RMK AO2 RAB31 SLP056 P0000 T00280011 TSNO= PAYA 290708Z AUTO 10006KT 9SM -RA SCT022 OVC029 03/01 A2970= METAR PAYA 290753Z AUTO 11009G16KT 5SM RA BR OVC015 02/01 A2970 RMK AO2 SLP058 P0005 T00220011 TSNO= SPECI PAYA 290841Z AUTO 08008G15KT 5SM -SN BR OVC013 02/01 A2970 RMK AO2 RAE36SNB36 P0006 T00170006 TSNO= PAYA 290850Z AUTO 10008KT 2 1/2SM -SN BR FEW008 OVC011 02/01 A2970= METAR PAYA 290853Z AUTO 09008KT 2 1/2SM -SN BR OVC011 02/01 A2970 RMK AO2 RAE36SNB36 SLP056 P0009 60014 T00170006 400440006 58001 TSNO= PAYA 290901Z AUTO 09007KT 3SM -SN BR FEW009 OVC013 01/01 A2970= PAYA 290915Z AUTO 09005KT 5SM UP BR FEW009 OVC015 01/01 A2969= METAR PAYA 290953Z AUTO 09006KT 4SM -SN BR OVC014 02/01 A2968 RMK AO2 UPB07E26RAB22E48SNE07B20E21B37 SLP052 P0005 T00170006 TSNO= PAYA 291013Z AUTO 08007KT 4SM R11/6000VP6000FT -SN BR OVC018 02/01 A2967= METAR PAYA 291053Z AUTO 10006KT 4SM -SN BR OVC014 02/01 A2967 RMK AO2 RAB22E43SNE22B43 SLP047 P0013 T00170006 TSNO=
 Alaska TAF Map

NOAA's National Weather Service
Alaska Aviation Weather Unit
6930 Sand Lake Road
Anchorage, AK 99502-1845
Disclaimer
Credits
Glossary
Privacy Policy
About Us
Career Opportunities
Contact AAWU Internet Services Site last modified: April, 17th 2012